createdAt,value
2023-05-17T04:44:27.965Z,74.93
2023-05-17T04:46:55.557Z,75.15
2023-05-17T04:49:22.537Z,74.84
2023-05-17T04:51:49.533Z,73.93
2023-05-17T04:54:16.814Z,73.69
2023-05-17T04:56:43.957Z,73.61
2023-05-17T04:59:14.788Z,72.84
2023-05-17T05:01:41.976Z,72.07
2023-05-17T05:04:09.021Z,72.26
2023-05-17T05:06:40.874Z,72.10
2023-05-17T05:09:07.929Z,71.75
2023-05-17T05:11:36.373Z,70.88
2023-05-17T05:14:03.837Z,69.93
2023-05-17T05:16:31.108Z,69.27
2023-05-17T05:19:00.859Z,68.10
2023-05-17T05:21:28.827Z,67.04
2023-05-17T05:23:56.320Z,66.30
2023-05-17T05:26:24.354Z,65.76
2023-05-17T05:28:52.489Z,65.25
2023-05-17T05:31:29.786Z,63.74
2023-05-17T05:42:32.910Z,59.37
2023-05-17T05:49:44.318Z,56.42
2023-05-17T05:53:19.933Z,55.35
2023-05-17T05:56:33.220Z,53.75
2023-05-17T06:03:42.184Z,52.70
2023-05-17T06:11:06.402Z,52.33
2023-05-17T06:13:39.437Z,51.95
2023-05-17T06:16:06.960Z,51.19
2023-05-17T06:18:52.315Z,50.54
2023-05-17T06:21:24.573Z,50.57
2023-05-17T06:23:54.149Z,50.38
2023-05-17T06:26:35.257Z,50.15
2023-05-17T06:29:02.370Z,49.93
2023-05-17T06:31:29.570Z,49.57
2023-05-17T06:34:00.056Z,49.28
2023-05-17T06:36:33.875Z,48.58
2023-05-17T06:39:10.924Z,47.83
2023-05-17T06:41:56.510Z,47.29
2023-05-17T06:44:29.348Z,46.76
2023-05-17T06:46:56.756Z,46.79
2023-05-17T06:50:43.741Z,46.30
2023-05-17T06:54:45.094Z,45.30
2023-05-17T07:02:33.761Z,44.98
2023-05-17T07:05:52.128Z,45.28
2023-05-17T07:09:20.746Z,45.33
2023-05-17T07:12:18.366Z,44.26
2023-05-17T07:14:46.035Z,42.96
2023-05-17T07:17:50.108Z,42.91
2023-05-17T07:20:31.657Z,43.58
2023-05-17T07:23:11.394Z,43.42
2023-05-17T07:25:45.258Z,43.64
2023-05-17T07:28:21.626Z,42.93
2023-05-17T07:30:51.494Z,43.03
2023-05-17T07:33:36.899Z,42.51
2023-05-17T07:36:09.601Z,42.50
2023-05-17T07:38:47.391Z,42.73
2023-05-17T07:45:47.531Z,42.17
2023-05-17T07:48:20.689Z,41.87
2023-05-17T07:50:55.469Z,42.46
2023-05-17T07:53:44.644Z,42.80
2023-05-17T07:56:39.952Z,43.14
2023-05-17T07:59:15.164Z,43.90
2023-05-17T08:01:47.343Z,44.23
2023-05-17T08:04:20.761Z,43.38
2023-05-17T08:06:55.504Z,42.95
2023-05-17T08:09:22.926Z,43.38
2023-05-17T08:12:02.363Z,43.71
2023-05-17T08:14:41.192Z,44.00
2023-05-17T08:17:22.317Z,43.75
2023-05-17T08:19:52.335Z,43.14
2023-05-17T08:22:31.295Z,43.26
2023-05-17T08:25:16.853Z,44.18
2023-05-17T08:28:17.797Z,44.56
2023-05-17T08:31:20.014Z,44.71
2023-05-17T08:33:54.464Z,43.99
2023-05-17T08:36:59.001Z,43.07
2023-05-17T08:40:11.238Z,43.21
2023-05-17T08:43:30.162Z,42.03
2023-05-17T08:46:03.899Z,41.84
2023-05-17T08:48:38.576Z,41.41
2023-05-17T08:52:10.826Z,40.14
2023-05-17T08:59:19.795Z,39.44
2023-05-17T09:02:14.609Z,39.67
2023-05-17T09:04:57.432Z,39.59
2023-05-17T09:07:55.407Z,37.08
2023-05-17T09:14:47.350Z,37.11
2023-05-17T09:20:54.651Z,38.12
2023-05-17T09:24:18.548Z,39.02
2023-05-17T09:27:17.539Z,37.70
2023-05-17T09:29:58.073Z,37.37
2023-05-17T09:32:28.699Z,35.54
2023-05-17T09:34:59.191Z,35.51
2023-05-17T09:37:26.566Z,35.14
2023-05-17T09:39:54.916Z,34.79
2023-05-17T09:42:22.252Z,35.22
2023-05-17T09:44:55.035Z,34.39
2023-05-17T09:47:26.960Z,34.44
2023-05-17T09:50:04.295Z,34.09
2023-05-17T09:53:21.153Z,33.91
2023-05-17T09:56:50.124Z,33.33
2023-05-17T09:59:41.810Z,33.55
2023-05-17T10:02:45.675Z,32.10
2023-05-17T10:05:32.876Z,31.51
2023-05-17T10:08:01.227Z,31.53
2023-05-17T10:10:29.898Z,31.39
2023-05-17T10:12:57.543Z,30.37
2023-05-17T10:15:25.965Z,28.63
2023-05-17T10:17:53.715Z,28.80
2023-05-17T10:20:21.703Z,29.43
2023-05-17T10:22:48.674Z,30.52
2023-05-17T10:25:18.389Z,30.77
2023-05-17T10:27:49.697Z,29.45
2023-05-17T10:30:17.648Z,28.93
2023-05-17T10:32:49.337Z,28.89
2023-05-17T10:35:16.764Z,29.13
2023-05-17T10:37:44.201Z,28.56
2023-05-17T10:40:13.614Z,27.34
2023-05-17T10:42:46.687Z,26.77
2023-05-17T10:45:13.745Z,26.98
2023-05-17T10:47:42.845Z,26.64
2023-05-17T10:50:13.418Z,27.44
2023-05-17T10:52:48.698Z,27.36
2023-05-17T10:55:28.774Z,27.41
2023-05-17T10:58:11.509Z,28.11
2023-05-17T11:00:39.669Z,28.90
2023-05-17T11:03:17.166Z,28.76
2023-05-17T11:06:12.922Z,28.14
2023-05-17T11:09:05.953Z,27.44
2023-05-17T11:11:32.894Z,27.43
2023-05-17T11:14:03.189Z,27.23
2023-05-17T11:16:36.885Z,26.79
2023-05-17T11:19:11.532Z,27.05
2023-05-17T11:21:48.148Z,28.85
2023-05-17T11:24:24.721Z,29.66
2023-05-17T11:26:51.789Z,29.95
2023-05-17T11:29:18.838Z,29.20
2023-05-17T11:31:46.239Z,30.12
2023-05-17T11:34:13.180Z,29.85
2023-05-17T11:36:53.630Z,30.74
2023-05-17T11:39:22.164Z,31.34
2023-05-17T11:41:57.238Z,31.03
2023-05-17T11:44:27.677Z,30.35
2023-05-17T11:47:09.605Z,29.74
2023-05-17T11:49:39.957Z,30.29
2023-05-17T11:52:07.491Z,31.03
2023-05-17T11:54:34.846Z,31.18
2023-05-17T11:57:04.612Z,30.98
2023-05-17T11:59:38.559Z,31.00
2023-05-17T12:02:05.838Z,31.71
2023-05-17T12:04:36.347Z,31.37
2023-05-17T12:07:03.460Z,31.08
2023-05-17T12:09:31.488Z,31.00
2023-05-17T12:12:00.163Z,31.25
2023-05-17T12:14:27.734Z,31.53
2023-05-17T12:16:56.508Z,31.37
2023-05-17T12:19:25.301Z,30.76
2023-05-17T12:21:52.438Z,30.77
2023-05-17T12:24:19.448Z,31.70
2023-05-17T12:26:47.149Z,31.80
2023-05-17T12:29:15.980Z,31.79
2023-05-17T12:31:52.507Z,31.17
2023-05-17T12:34:19.552Z,31.29
2023-05-17T12:36:46.751Z,30.71
2023-05-17T12:39:13.975Z,30.87
2023-05-17T12:41:41.041Z,30.68
2023-05-17T12:44:15.100Z,30.73
2023-05-17T12:46:43.823Z,30.62
2023-05-17T12:49:12.014Z,30.69
2023-05-17T12:51:45.936Z,30.79
2023-05-17T12:54:14.268Z,30.69
2023-05-17T12:56:44.835Z,30.40
2023-05-17T12:59:14.806Z,30.14
2023-05-17T13:01:48.787Z,30.45
2023-05-17T13:04:16.756Z,30.58
2023-05-17T13:06:50.230Z,30.45
2023-05-17T13:09:18.794Z,30.17
2023-05-17T13:11:52.093Z,30.12
2023-05-17T13:14:38.640Z,30.05
2023-05-17T13:17:06.992Z,30.55
2023-05-17T13:19:36.185Z,30.83
2023-05-17T13:22:06.594Z,30.62
2023-05-17T13:24:37.815Z,30.39
2023-05-17T13:27:05.184Z,30.60
2023-05-17T13:29:39.583Z,30.90
2023-05-17T13:32:08.103Z,31.09
2023-05-17T13:34:35.343Z,31.32
2023-05-17T13:37:02.319Z,31.58
2023-05-17T13:39:29.318Z,31.30
2023-05-17T13:41:56.352Z,31.57
2023-05-17T13:44:23.288Z,31.56
2023-05-17T13:46:50.256Z,31.49
2023-05-17T13:49:17.750Z,31.50
2023-05-17T13:51:45.151Z,31.96
2023-05-17T13:54:12.126Z,31.98
2023-05-17T13:56:39.238Z,32.18
2023-05-17T13:59:06.123Z,32.31
2023-05-17T14:01:33.216Z,32.49
2023-05-17T14:04:01.056Z,32.37
2023-05-17T14:06:28.369Z,32.03
2023-05-17T14:08:57.416Z,31.87
2023-05-17T14:11:24.498Z,31.77
2023-05-17T14:13:51.939Z,31.95
2023-05-17T14:16:19.172Z,31.85
2023-05-17T14:18:46.752Z,31.86
2023-05-17T14:21:13.849Z,31.94
2023-05-17T14:23:41.046Z,32.06
2023-05-17T14:26:09.593Z,31.44
2023-05-17T14:28:38.460Z,31.11
2023-05-17T14:31:06.825Z,30.92
2023-05-17T14:33:34.258Z,31.21
2023-05-17T14:36:01.392Z,30.74
2023-05-17T14:38:28.531Z,30.87
2023-05-17T14:40:56.177Z,30.58
2023-05-17T14:43:23.691Z,30.33
2023-05-17T14:45:50.890Z,30.78
2023-05-17T14:48:17.883Z,30.38
2023-05-17T14:50:44.835Z,30.20
2023-05-17T14:53:11.962Z,30.85
2023-05-17T14:55:38.979Z,31.05
2023-05-17T14:58:06.581Z,31.39
2023-05-17T15:00:33.537Z,31.27
2023-05-17T15:03:00.649Z,31.20
2023-05-17T15:05:28.040Z,31.25
2023-05-17T15:07:55.164Z,31.35
2023-05-17T15:10:22.784Z,31.46
2023-05-17T15:12:49.925Z,31.21
2023-05-17T15:15:17.252Z,31.65
2023-05-17T15:17:44.414Z,31.56
2023-05-17T15:20:12.211Z,31.79
2023-05-17T15:22:39.347Z,31.46
2023-05-17T15:25:06.852Z,31.59
2023-05-17T15:27:33.919Z,32.12
2023-05-17T15:30:01.010Z,32.05
2023-05-17T15:32:28.027Z,31.71
2023-05-17T15:34:55.181Z,31.74
2023-05-17T15:37:23.153Z,31.73
2023-05-17T15:39:50.250Z,31.94
2023-05-17T15:42:17.231Z,31.88
2023-05-17T15:44:44.186Z,32.07
2023-05-17T15:47:11.313Z,32.48
2023-05-17T15:49:39.483Z,32.86
2023-05-17T15:52:06.938Z,32.80
2023-05-17T15:54:33.966Z,32.76
2023-05-17T15:57:00.970Z,32.40
2023-05-17T15:59:27.980Z,32.34
2023-05-17T16:01:54.953Z,32.42
2023-05-17T16:04:22.063Z,32.59
2023-05-17T16:06:49.097Z,32.68
2023-05-17T16:09:16.151Z,33.04
2023-05-17T16:11:43.185Z,33.19
2023-05-17T16:14:10.330Z,33.53
2023-05-17T16:16:37.290Z,33.75
2023-05-17T16:19:04.837Z,33.86
2023-05-17T16:21:32.762Z,34.01
2023-05-17T16:23:59.866Z,34.25
2023-05-17T16:26:27.773Z,34.48
2023-05-17T16:28:56.920Z,34.79
2023-05-17T16:31:24.014Z,34.92
2023-05-17T16:33:51.503Z,35.07
2023-05-17T16:36:18.817Z,35.16
2023-05-17T16:38:45.879Z,35.38
2023-05-17T16:41:12.830Z,35.44
2023-05-17T16:43:39.940Z,35.59
2023-05-17T16:46:07.125Z,35.65
2023-05-17T16:48:34.093Z,35.74
2023-05-17T16:51:01.166Z,35.84
2023-05-17T16:53:31.159Z,36.02
2023-05-17T16:55:58.220Z,36.26
2023-05-17T16:58:26.127Z,36.41
2023-05-17T17:00:53.206Z,36.82
2023-05-17T17:03:20.307Z,37.26
2023-05-17T17:05:47.465Z,37.47
2023-05-17T17:08:14.452Z,37.86
2023-05-17T17:10:41.568Z,37.88
2023-05-17T17:13:08.694Z,37.79
2023-05-17T17:15:35.775Z,37.98
2023-05-17T17:18:02.948Z,37.91
2023-05-17T17:20:30.224Z,38.13
2023-05-17T17:22:57.596Z,38.05
2023-05-17T17:25:24.875Z,38.06
2023-05-17T17:27:53.191Z,38.00
2023-05-17T17:30:20.586Z,38.03
2023-05-17T17:32:47.882Z,38.01
2023-05-17T17:35:15.194Z,38.08
2023-05-17T17:37:42.132Z,37.91
2023-05-17T17:40:09.480Z,37.99
2023-05-17T17:42:36.441Z,38.03
2023-05-17T17:45:03.767Z,37.93
2023-05-17T17:47:30.801Z,38.12
2023-05-17T17:49:57.908Z,38.19
2023-05-17T17:52:25.127Z,38.28
2023-05-17T17:54:52.172Z,38.40
2023-05-17T17:57:19.702Z,38.44
2023-05-17T17:59:46.667Z,38.45
2023-05-17T18:02:13.688Z,38.53
2023-05-17T18:04:41.324Z,38.65
2023-05-17T18:07:08.610Z,38.91
2023-05-17T18:09:35.897Z,38.84
2023-05-17T18:12:03.087Z,39.00
2023-05-17T18:14:30.171Z,38.91
2023-05-17T18:16:57.285Z,39.04
2023-05-17T18:19:24.592Z,39.08
2023-05-17T18:21:51.568Z,39.26
2023-05-17T18:24:18.740Z,39.43
2023-05-17T18:26:45.897Z,39.52
2023-05-17T18:29:13.010Z,39.58
2023-05-17T18:31:40.087Z,39.74
2023-05-17T18:34:07.266Z,39.81
2023-05-17T18:36:34.394Z,39.89
2023-05-17T18:39:01.571Z,39.94
2023-05-17T18:41:28.521Z,40.02
2023-05-17T18:43:56.111Z,40.08
2023-05-17T18:46:23.150Z,40.19
2023-05-17T18:48:50.381Z,40.23
2023-05-17T18:51:17.344Z,40.34
2023-05-17T18:53:44.778Z,40.52
2023-05-17T18:56:12.776Z,40.57
2023-05-17T18:58:39.898Z,40.85
2023-05-17T19:01:07.017Z,40.83
2023-05-17T19:03:34.304Z,40.95
2023-05-17T19:06:01.297Z,41.18
2023-05-17T19:08:28.370Z,41.39
2023-05-17T19:10:56.613Z,41.58
2023-05-17T19:13:23.671Z,41.60
2023-05-17T19:15:52.987Z,41.66
2023-05-17T19:18:20.184Z,41.94
2023-05-17T19:20:47.397Z,42.11
2023-05-17T19:23:14.280Z,42.11
2023-05-17T19:25:41.350Z,42.15
2023-05-17T19:28:08.298Z,42.27
2023-05-17T19:30:35.459Z,42.54
2023-05-17T19:33:02.873Z,42.69
2023-05-17T19:35:30.114Z,42.59
2023-05-17T19:37:57.407Z,42.73
2023-05-17T19:40:24.635Z,42.78
2023-05-17T19:42:51.711Z,42.95
2023-05-17T19:45:18.835Z,43.21
2023-05-17T19:47:45.865Z,43.48
2023-05-17T19:50:13.669Z,43.76
2023-05-17T19:52:41.162Z,44.23
2023-05-17T19:55:08.281Z,44.54
2023-05-17T19:57:35.383Z,44.81
2023-05-17T20:00:02.892Z,45.13
2023-05-17T20:02:31.481Z,45.34
2023-05-17T20:05:02.419Z,45.92
2023-05-17T20:07:30.821Z,46.35
2023-05-17T20:09:57.777Z,46.85
2023-05-17T20:12:25.909Z,47.61
2023-05-17T20:14:53.621Z,47.89
2023-05-17T20:17:20.779Z,47.91
2023-05-17T20:19:47.838Z,48.21
2023-05-17T20:22:14.984Z,48.76
2023-05-17T20:24:44.255Z,49.47
2023-05-17T20:27:11.635Z,49.60
2023-05-17T20:29:38.870Z,50.08
2023-05-17T20:32:06.651Z,50.28
2023-05-17T20:34:33.793Z,50.61
2023-05-17T20:37:01.255Z,51.09
2023-05-17T20:39:28.332Z,51.52
2023-05-17T20:41:56.952Z,51.62
2023-05-17T20:44:24.516Z,51.81
2023-05-17T20:46:52.164Z,52.11
2023-05-17T20:49:19.243Z,52.84
2023-05-17T20:51:46.428Z,53.54
2023-05-17T20:54:13.520Z,54.03
2023-05-17T20:56:40.533Z,54.32
2023-05-17T20:59:07.579Z,54.92
2023-05-17T21:01:35.004Z,55.48
2023-05-17T21:04:02.444Z,56.01
2023-05-17T21:06:31.854Z,56.82
2023-05-17T21:09:02.623Z,57.47
2023-05-17T21:11:30.016Z,57.88
2023-05-17T21:14:00.186Z,58.09
2023-05-17T21:16:27.224Z,58.69
2023-05-17T21:18:54.302Z,59.25
2023-05-17T21:21:21.487Z,59.55
2023-05-17T21:23:48.710Z,59.87
2023-05-17T21:26:15.933Z,60.31
2023-05-17T21:28:42.907Z,60.65
2023-05-17T21:31:10.014Z,61.20
2023-05-17T21:33:37.038Z,61.75
2023-05-17T21:36:04.527Z,62.08
2023-05-17T21:38:31.646Z,62.77
2023-05-17T21:40:58.586Z,62.98
2023-05-17T21:43:25.637Z,62.86
2023-05-17T21:45:52.836Z,63.27
2023-05-17T21:48:19.887Z,63.61
2023-05-17T21:50:46.814Z,63.98
2023-05-17T21:53:14.119Z,64.51
2023-05-17T21:55:56.379Z,65.17
2023-05-17T21:58:28.165Z,65.69
2023-05-17T22:00:55.291Z,66.20
2023-05-17T22:03:22.557Z,66.35
2023-05-17T22:05:49.838Z,66.81
2023-05-17T22:08:16.814Z,66.92
2023-05-17T22:10:43.777Z,67.25
2023-05-17T22:13:12.588Z,67.74
2023-05-17T22:15:41.726Z,67.67
2023-05-17T22:18:09.130Z,67.80
2023-05-17T22:20:36.114Z,68.25
2023-05-17T22:23:03.416Z,68.24
2023-05-17T22:25:30.384Z,68.74
2023-05-17T22:27:57.438Z,68.89
2023-05-17T22:30:24.341Z,69.19
2023-05-17T22:32:54.781Z,69.50
2023-05-17T22:35:22.070Z,69.86
2023-05-17T22:37:50.279Z,70.16
2023-05-17T22:40:17.635Z,70.57
2023-05-17T22:42:45.239Z,71.08
2023-05-17T22:45:15.339Z,70.90
2023-05-17T22:47:47.043Z,71.34
2023-05-17T22:50:15.977Z,71.31
2023-05-17T22:52:43.359Z,71.33
2023-05-17T22:55:10.678Z,71.24
2023-05-17T22:57:37.743Z,70.90
2023-05-17T23:00:10.897Z,71.00
2023-05-17T23:02:38.014Z,70.89
2023-05-17T23:05:06.024Z,71.13
2023-05-17T23:07:37.453Z,71.44
2023-05-17T23:10:08.461Z,71.41
2023-05-17T23:12:36.639Z,71.73
2023-05-17T23:15:07.041Z,71.95
2023-05-17T23:17:35.747Z,71.81
2023-05-17T23:20:13.214Z,71.77
2023-05-17T23:22:40.272Z,71.66
2023-05-17T23:25:07.872Z,71.36
2023-05-17T23:27:35.497Z,71.22
2023-05-17T23:30:02.772Z,71.47
2023-05-17T23:32:32.691Z,71.62
2023-05-17T23:35:06.148Z,71.58
2023-05-17T23:37:33.480Z,71.30
2023-05-17T23:40:00.661Z,71.39
2023-05-17T23:42:29.455Z,71.46
2023-05-17T23:44:56.539Z,71.81
2023-05-17T23:47:23.663Z,71.98
2023-05-17T23:49:51.350Z,72.12
2023-05-17T23:52:19.194Z,72.56
2023-05-17T23:54:46.841Z,72.94
2023-05-17T23:57:14.066Z,73.70
2023-05-17T23:59:41.324Z,74.43
